sensor_id;sensor_type;location;lat;lon;timestamp;pressure;altitude;pressure_sealevel;temperature;humidity
50103;BME280;35993;52.604;10.078;2023-03-04T00:01:36;101787.16;;;3.20;100.00
50103;BME280;35993;52.604;10.078;2023-03-04T00:04:02;101785.31;;;3.20;100.00
50103;BME280;35993;52.604;10.078;2023-03-04T00:06:28;101777.97;;;3.22;100.00
50103;BME280;35993;52.604;10.078;2023-03-04T00:08:53;101784.75;;;3.26;100.00
50103;BME280;35993;52.604;10.078;2023-03-04T00:11:19;101783.03;;;3.25;100.00
50103;BME280;35993;52.604;10.078;2023-03-04T00:13:44;101779.22;;;3.28;100.00
50103;BME280;35993;52.604;10.078;2023-03-04T00:16:10;101779.06;;;3.30;100.00
50103;BME280;35993;52.604;10.078;2023-03-04T00:18:35;101775.41;;;3.31;100.00
50103;BME280;35993;52.604;10.078;2023-03-04T00:21:01;101770.75;;;3.33;100.00
50103;BME280;35993;52.604;10.078;2023-03-04T00:23:26;101776.94;;;3.33;100.00
50103;BME280;35993;52.604;10.078;2023-03-04T00:25:52;101768.47;;;3.38;100.00
50103;BME280;35993;52.604;10.078;2023-03-04T00:28:18;101770.44;;;3.36;100.00
50103;BME280;35993;52.604;10.078;2023-03-04T00:30:43;101761.69;;;3.34;100.00
50103;BME280;35993;52.604;10.078;2023-03-04T00:33:09;101765.09;;;3.36;100.00
50103;BME280;35993;52.604;10.078;2023-03-04T00:35:35;101763.13;;;3.38;100.00
50103;BME280;35993;52.604;10.078;2023-03-04T00:38:00;101761.13;;;3.40;100.00
50103;BME280;35993;52.604;10.078;2023-03-04T00:40:26;101762.53;;;3.44;100.00
50103;BME280;35993;52.604;10.078;2023-03-04T00:42:52;101758.72;;;3.47;100.00
50103;BME280;35993;52.604;10.078;2023-03-04T00:45:17;101758.16;;;3.43;100.00
50103;BME280;35993;52.604;10.078;2023-03-04T00:47:43;101757.03;;;3.46;100.00
50103;BME280;35993;52.604;10.078;2023-03-04T00:50:09;101745.31;;;3.47;100.00
50103;BME280;35993;52.604;10.078;2023-03-04T00:52:35;101747.69;;;3.50;100.00
50103;BME280;35993;52.604;10.078;2023-03-04T00:55:00;101747.69;;;3.50;100.00
50103;BME280;35993;52.604;10.078;2023-03-04T00:57:26;101751.91;;;3.52;100.00
50103;BME280;35993;52.604;10.078;2023-03-04T00:59:51;101749.09;;;3.54;100.00
50103;BME280;35993;52.604;10.078;2023-03-04T01:02:17;101751.63;;;3.55;100.00
50103;BME280;35993;52.604;10.078;2023-03-04T01:04:42;101742.56;;;3.56;100.00
50103;BME280;35993;52.604;10.078;2023-03-04T01:07:08;101740.75;;;3.57;100.00
50103;BME280;35993;52.604;10.078;2023-03-04T01:09:34;101741.59;;;3.57;100.00
50103;BME280;35993;52.604;10.078;2023-03-04T01:12:01;101744.13;;;3.59;100.00
50103;BME280;35993;52.604;10.078;2023-03-04T01:14:27;101741.44;;;3.59;100.00
50103;BME280;35993;52.604;10.078;2023-03-04T01:16:52;101731.25;;;3.63;100.00
50103;BME280;35993;52.604;10.078;2023-03-04T01:19:18;101731.81;;;3.66;100.00
50103;BME280;35993;52.604;10.078;2023-03-04T01:21:44;101728.00;;;3.69;100.00
50103;BME280;35993;52.604;10.078;2023-03-04T01:24:12;101725.56;;;3.66;100.00
50103;BME280;35993;52.604;10.078;2023-03-04T01:26:39;101714.41;;;3.70;100.00
50103;BME280;35993;52.604;10.078;2023-03-04T01:29:05;101715.25;;;3.71;100.00
50103;BME280;35993;52.604;10.078;2023-03-04T01:31:30;101714.81;;;3.75;100.00
50103;BME280;35993;52.604;10.078;2023-03-04T01:33:56;101711.28;;;3.75;100.00
50103;BME280;35993;52.604;10.078;2023-03-04T01:36:21;101709.59;;;3.74;100.00
50103;BME280;35993;52.604;10.078;2023-03-04T01:38:47;101701.53;;;3.74;100.00
50103;BME280;35993;52.604;10.078;2023-03-04T01:41:13;101705.06;;;3.74;100.00
50103;BME280;35993;52.604;10.078;2023-03-04T01:43:41;101696.00;;;3.75;100.00
50103;BME280;35993;52.604;10.078;2023-03-04T01:46:09;101704.22;;;3.74;100.00
50103;BME280;35993;52.604;10.078;2023-03-04T01:48:37;101689.97;;;3.73;100.00
50103;BME280;35993;52.604;10.078;2023-03-04T01:51:05;101692.34;;;3.76;100.00
50103;BME280;35993;52.604;10.078;2023-03-04T01:53:31;101687.53;;;3.80;100.00
50103;BME280;35993;52.604;10.078;2023-03-04T01:56:23;101688.34;;;3.81;100.00
50103;BME280;35993;52.604;10.078;2023-03-04T01:59:16;101691.19;;;3.79;100.00
50103;BME280;35993;52.604;10.078;2023-03-04T02:01:54;101678.06;;;3.76;100.00
50103;BME280;35993;52.604;10.078;2023-03-04T02:04:26;101680.75;;;3.76;100.00
50103;BME280;35993;52.604;10.078;2023-03-04T02:06:53;101677.91;;;3.77;100.00
50103;BME280;35993;52.604;10.078;2023-03-04T02:09:20;101677.59;;;3.81;100.00
50103;BME280;35993;52.604;10.078;2023-03-04T02:11:47;101668.72;;;3.80;100.00
50103;BME280;35993;52.604;10.078;2023-03-04T02:14:14;101672.25;;;3.81;100.00
50103;BME280;35993;52.604;10.078;2023-03-04T02:16:41;101669.41;;;3.82;100.00
50103;BME280;35993;52.604;10.078;2023-03-04T02:19:14;101668.00;;;3.78;100.00
50103;BME280;35993;52.604;10.078;2023-03-04T02:21:40;101658.97;;;3.79;100.00
50103;BME280;35993;52.604;10.078;2023-03-04T02:26:48;101671.56;;;3.79;100.00
50103;BME280;35993;52.604;10.078;2023-03-04T02:29:15;101663.34;;;3.80;100.00
50103;BME280;35993;52.604;10.078;2023-03-04T02:31:49;101657.66;;;3.83;100.00
50103;BME280;35993;52.604;10.078;2023-03-04T02:34:19;101651.47;;;3.83;100.00
50103;BME280;35993;52.604;10.078;2023-03-04T02:36:46;101646.38;;;3.80;100.00
50103;BME280;35993;52.604;10.078;2023-03-04T02:41:46;101652.44;;;3.82;100.00
50103;BME280;35993;52.604;10.078;2023-03-04T02:44:24;101644.38;;;3.82;100.00
50103;BME280;35993;52.604;10.078;2023-03-04T02:46:51;101644.38;;;3.82;100.00
50103;BME280;35993;52.604;10.078;2023-03-04T02:49:18;101639.84;;;3.82;100.00
50103;BME280;35993;52.604;10.078;2023-03-04T02:51:44;101645.38;;;3.81;100.00
50103;BME280;35993;52.604;10.078;2023-03-04T02:54:14;101640.72;;;3.83;100.00
50103;BME280;35993;52.604;10.078;2023-03-04T02:56:48;101647.63;;;3.85;100.00
50103;BME280;35993;52.604;10.078;2023-03-04T02:59:15;101626.28;;;3.84;100.00
50103;BME280;35993;52.604;10.078;2023-03-04T03:01:40;101635.34;;;3.83;100.00
50103;BME280;35993;52.604;10.078;2023-03-04T03:04:06;101639.19;;;3.80;100.00
50103;BME280;35993;52.604;10.078;2023-03-04T03:06:33;101642.53;;;3.82;100.00
50103;BME280;35993;52.604;10.078;2023-03-04T03:08:58;101635.78;;;3.78;100.00
50103;BME280;35993;52.604;10.078;2023-03-04T03:11:24;101644.38;;;3.82;100.00
50103;BME280;35993;52.604;10.078;2023-03-04T03:13:50;101641.16;;;3.78;100.00
50103;BME280;35993;52.604;10.078;2023-03-04T03:16:16;101633.56;;;3.73;100.00
50103;BME280;35993;52.604;10.078;2023-03-04T03:18:42;101634.41;;;3.74;100.00
50103;BME280;35993;52.604;10.078;2023-03-04T03:21:07;101625.63;;;3.72;100.00
50103;BME280;35993;52.604;10.078;2023-03-04T03:23:33;101629.56;;;3.77;100.00
50103;BME280;35993;52.604;10.078;2023-03-04T03:26:00;101629.72;;;3.76;100.00
50103;BME280;35993;52.604;10.078;2023-03-04T03:28:27;101628.19;;;3.73;100.00
50103;BME280;35993;52.604;10.078;2023-03-04T03:30:53;101621.41;;;3.69;100.00
50103;BME280;35993;52.604;10.078;2023-03-04T03:33:19;101626.63;;;3.71;100.00
50103;BME280;35993;52.604;10.078;2023-03-04T03:35:44;101624.63;;;3.73;100.00
50103;BME280;35993;52.604;10.078;2023-03-04T03:38:10;101620.56;;;3.69;100.00
50103;BME280;35993;52.604;10.078;2023-03-04T03:40:36;101617.03;;;3.68;100.00
50103;BME280;35993;52.604;10.078;2023-03-04T03:43:01;101611.97;;;3.65;100.00
50103;BME280;35993;52.604;10.078;2023-03-04T03:45:27;101610.81;;;3.68;100.00
50103;BME280;35993;52.604;10.078;2023-03-04T03:47:52;101611.66;;;3.68;100.00
50103;BME280;35993;52.604;10.078;2023-03-04T03:50:18;101604.91;;;3.64;100.00
50103;BME280;35993;52.604;10.078;2023-03-04T03:52:44;101612.78;;;3.66;100.00
50103;BME280;35993;52.604;10.078;2023-03-04T03:55:09;101605.03;;;3.63;100.00
50103;BME280;35993;52.604;10.078;2023-03-04T03:57:35;101597.31;;;3.59;100.00
50103;BME280;35993;52.604;10.078;2023-03-04T04:00:00;101590.69;;;3.54;100.00
50103;BME280;35993;52.604;10.078;2023-03-04T04:02:26;101599.59;;;3.54;100.00
50103;BME280;35993;52.604;10.078;2023-03-04T04:04:52;101602.13;;;3.56;100.00
50103;BME280;35993;52.604;10.078;2023-03-04T04:07:17;101591.66;;;3.53;100.00
50103;BME280;35993;52.604;10.078;2023-03-04T04:09:43;101590.00;;;3.52;100.00
50103;BME280;35993;52.604;10.078;2023-03-04T04:12:12;101585.47;;;3.52;100.00
50103;BME280;35993;52.604;10.078;2023-03-04T04:14:37;101583.91;;;3.50;100.00
50103;BME280;35993;52.604;10.078;2023-03-04T04:17:06;101586.44;;;3.51;100.00
50103;BME280;35993;52.604;10.078;2023-03-04T04:19:31;101580.25;;;3.51;100.00
50103;BME280;35993;52.604;10.078;2023-03-04T04:21:57;101594.50;;;3.51;100.00
50103;BME280;35993;52.604;10.078;2023-03-04T04:24:23;101588.97;;;3.53;100.00
50103;BME280;35993;52.604;10.078;2023-03-04T04:26:48;101585.63;;;3.51;100.00
50103;BME280;35993;52.604;10.078;2023-03-04T04:29:14;101581.78;;;3.53;100.00
50103;BME280;35993;52.604;10.078;2023-03-04T04:31:41;101587.31;;;3.52;100.00
50103;BME280;35993;52.604;10.078;2023-03-04T04:34:06;101578.41;;;3.51;100.00
50103;BME280;35993;52.604;10.078;2023-03-04T04:36:32;101580.41;;;3.49;100.00
50103;BME280;35993;52.604;10.078;2023-03-04T04:38:57;101582.78;;;3.52;100.00
50103;BME280;35993;52.604;10.078;2023-03-04T04:41:25;101581.22;;;3.50;100.00
50103;BME280;35993;52.604;10.078;2023-03-04T04:43:52;101583.09;;;3.49;100.00
50103;BME280;35993;52.604;10.078;2023-03-04T04:46:18;101579.38;;;3.50;100.00
50103;BME280;35993;52.604;10.078;2023-03-04T04:48:44;101579.38;;;3.50;100.00
50103;BME280;35993;52.604;10.078;2023-03-04T04:51:10;101575.31;;;3.46;100.00
50103;BME280;35993;52.604;10.078;2023-03-04T04:53:36;101576.69;;;3.50;100.00
50103;BME280;35993;52.604;10.078;2023-03-04T04:56:14;101571.47;;;3.49;100.00
50103;BME280;35993;52.604;10.078;2023-03-04T04:58:40;101566.13;;;3.49;100.00
50103;BME280;35993;52.604;10.078;2023-03-04T05:01:06;101567.81;;;3.50;100.00
50103;BME280;35993;52.604;10.078;2023-03-04T05:03:34;101566.81;;;3.51;100.00
50103;BME280;35993;52.604;10.078;2023-03-04T05:05:59;101562.59;;;3.48;100.00
50103;BME280;35993;52.604;10.078;2023-03-04T05:08:25;101567.25;;;3.46;100.00
50103;BME280;35993;52.604;10.078;2023-03-04T05:10:51;101565.28;;;3.48;100.00
50103;BME280;35993;52.604;10.078;2023-03-04T05:13:17;101566.28;;;3.47;100.00
50103;BME280;35993;52.604;10.078;2023-03-04T05:15:44;101569.78;;;3.48;100.00
50103;BME280;35993;52.604;10.078;2023-03-04T05:18:10;101564.88;;;3.43;100.00
50103;BME280;35993;52.604;10.078;2023-03-04T05:20:35;101569.28;;;3.44;100.00
50103;BME280;35993;52.604;10.078;2023-03-04T05:23:01;101567.41;;;3.44;100.00
50103;BME280;35993;52.604;10.078;2023-03-04T05:25:27;101571.94;;;3.44;100.00
50103;BME280;35993;52.604;10.078;2023-03-04T05:27:52;101567.56;;;3.43;100.00
50103;BME280;35993;52.604;10.078;2023-03-04T05:30:18;101570.53;;;3.40;100.00
50103;BME280;35993;52.604;10.078;2023-03-04T05:32:43;101571.25;;;3.42;100.00
50103;BME280;35993;52.604;10.078;2023-03-04T05:35:09;101579.72;;;3.37;100.00
50103;BME280;35993;52.604;10.078;2023-03-04T05:37:34;101574.66;;;3.34;100.00
50103;BME280;35993;52.604;10.078;2023-03-04T05:40:00;101572.00;;;3.34;100.00
50103;BME280;35993;52.604;10.078;2023-03-04T05:42:26;101576.50;;;3.34;100.00
50103;BME280;35993;52.604;10.078;2023-03-04T05:44:52;101570.59;;;3.30;100.00
50103;BME280;35993;52.604;10.078;2023-03-04T05:47:18;101582.16;;;3.31;100.00
50103;BME280;35993;52.604;10.078;2023-03-04T05:49:43;101568.03;;;3.28;100.00
50103;BME280;35993;52.604;10.078;2023-03-04T05:52:09;101565.22;;;3.30;100.00
50103;BME280;35993;52.604;10.078;2023-03-04T05:54:35;101556.63;;;3.26;100.00
50103;BME280;35993;52.604;10.078;2023-03-04T05:57:00;101573.72;;;3.25;100.00
50103;BME280;35993;52.604;10.078;2023-03-04T05:59:27;101571.03;;;3.25;100.00
50103;BME280;35993;52.604;10.078;2023-03-04T06:01:52;101563.97;;;3.24;100.00
50103;BME280;35993;52.604;10.078;2023-03-04T06:04:18;101565.50;;;3.27;100.00
50103;BME280;35993;52.604;10.078;2023-03-04T06:06:44;101566.22;;;3.29;100.00
50103;BME280;35993;52.604;10.078;2023-03-04T06:09:12;101564.44;;;3.20;100.00
50103;BME280;35993;52.604;10.078;2023-03-04T06:11:38;101567.50;;;3.25;100.00
50103;BME280;35993;52.604;10.078;2023-03-04T06:14:04;101571.19;;;3.24;100.00
50103;BME280;35993;52.604;10.078;2023-03-04T06:16:30;101569.34;;;3.24;100.00
50103;BME280;35993;52.604;10.078;2023-03-04T06:18:55;101561.44;;;3.23;100.00
50103;BME280;35993;52.604;10.078;2023-03-04T06:21:21;101566.97;;;3.21;100.00
50103;BME280;35993;52.604;10.078;2023-03-04T06:23:46;101562.81;;;3.27;100.00
50103;BME280;35993;52.604;10.078;2023-03-04T06:26:12;101557.84;;;3.32;100.00
50103;BME280;35993;52.604;10.078;2023-03-04T06:28:41;101564.78;;;3.35;100.00
50103;BME280;35993;52.604;10.078;2023-03-04T06:31:06;101565.47;;;3.37;100.00
50103;BME280;35993;52.604;10.078;2023-03-04T06:33:32;101558.97;;;3.39;100.00
50103;BME280;35993;52.604;10.078;2023-03-04T06:35:58;101557.28;;;3.38;100.00
50103;BME280;35993;52.604;10.078;2023-03-04T06:38:24;101560.53;;;3.32;100.00
50103;BME280;35993;52.604;10.078;2023-03-04T06:40:50;101561.69;;;3.30;100.00
50103;BME280;35993;52.604;10.078;2023-03-04T06:43:16;101574.44;;;3.27;100.00
50103;BME280;35993;52.604;10.078;2023-03-04T06:45:42;101567.06;;;3.30;100.00
50103;BME280;35993;52.604;10.078;2023-03-04T06:48:07;101569.59;;;3.31;100.00
50103;BME280;35993;52.604;10.078;2023-03-04T06:50:33;101568.44;;;3.34;100.00
50103;BME280;35993;52.604;10.078;2023-03-04T06:52:58;101574.22;;;3.39;100.00
50103;BME280;35993;52.604;10.078;2023-03-04T06:55:24;101569.84;;;3.38;100.00
50103;BME280;35993;52.604;10.078;2023-03-04T06:57:49;101566.63;;;3.34;100.00
50103;BME280;35993;52.604;10.078;2023-03-04T07:00:15;101566.16;;;3.39;100.00
50103;BME280;35993;52.604;10.078;2023-03-04T07:02:41;101564.91;;;3.33;100.00
50103;BME280;35993;52.604;10.078;2023-03-04T07:05:09;101572.97;;;3.33;100.00
50103;BME280;35993;52.604;10.078;2023-03-04T07:07:34;101568.00;;;3.38;100.00
50103;BME280;35993;52.604;10.078;2023-03-04T07:10:00;101569.00;;;3.37;100.00
50103;BME280;35993;52.604;10.078;2023-03-04T07:12:26;101569.16;;;3.36;100.00
50103;BME280;35993;52.604;10.078;2023-03-04T07:14:51;101564.88;;;3.43;100.00
50103;BME280;35993;52.604;10.078;2023-03-04T07:17:17;101560.94;;;3.37;100.00
50103;BME280;35993;52.604;10.078;2023-03-04T07:19:42;101562.19;;;3.43;100.00
50103;BME280;35993;52.604;10.078;2023-03-04T07:22:09;101571.09;;;3.43;100.00
50103;BME280;35993;52.604;10.078;2023-03-04T07:24:34;101569.78;;;3.48;100.00
50103;BME280;35993;52.604;10.078;2023-03-04T07:27:00;101567.97;;;3.48;100.00
50103;BME280;35993;52.604;10.078;2023-03-04T07:29:25;101565.97;;;3.50;100.00
50103;BME280;35993;52.604;10.078;2023-03-04T07:31:51;101567.66;;;3.51;100.00
50103;BME280;35993;52.604;10.078;2023-03-04T07:34:16;101569.50;;;3.51;100.00
50103;BME280;35993;52.604;10.078;2023-03-04T07:36:43;101573.03;;;3.51;100.00
50103;BME280;35993;52.604;10.078;2023-03-04T07:39:10;101575.56;;;3.53;100.00
50103;BME280;35993;52.604;10.078;2023-03-04T07:41:37;101567.38;;;3.54;100.00
50103;BME280;35993;52.604;10.078;2023-03-04T07:44:03;101564.56;;;3.46;100.00
50103;BME280;35993;52.604;10.078;2023-03-04T07:46:29;101582.22;;;3.49;100.00
50103;BME280;35993;52.604;10.078;2023-03-04T07:48:56;101572.47;;;3.48;100.00
50103;BME280;35993;52.604;10.078;2023-03-04T07:51:24;101575.56;;;3.53;100.00
50103;BME280;35993;52.604;10.078;2023-03-04T07:53:52;101587.44;;;3.50;100.00
50103;BME280;35993;52.604;10.078;2023-03-04T07:56:20;101576.81;;;3.58;100.00
50103;BME280;35993;52.604;10.078;2023-03-04T07:58:46;101579.75;;;3.65;100.00
50103;BME280;35993;52.604;10.078;2023-03-04T08:01:16;101579.41;;;3.68;100.00
50103;BME280;35993;52.604;10.078;2023-03-04T08:03:43;101572.03;;;3.80;100.00
50103;BME280;35993;52.604;10.078;2023-03-04T08:06:12;101581.31;;;3.86;100.00
50103;BME280;35993;52.604;10.078;2023-03-04T08:08:38;101581.69;;;3.91;100.00
50103;BME280;35993;52.604;10.078;2023-03-04T08:11:08;101579.56;;;3.94;100.00
50103;BME280;35993;52.604;10.078;2023-03-04T08:13:34;101578.63;;;4.04;100.00
50103;BME280;35993;52.604;10.078;2023-03-04T08:16:00;101574.56;;;4.00;100.00
50103;BME280;35993;52.604;10.078;2023-03-04T08:18:26;101575.94;;;4.04;100.00
50103;BME280;35993;52.604;10.078;2023-03-04T08:20:52;101575.41;;;4.00;100.00
50103;BME280;35993;52.604;10.078;2023-03-04T08:23:18;101589.38;;;4.04;100.00
50103;BME280;35993;52.604;10.078;2023-03-04T08:25:47;101584.25;;;4.10;100.00
50103;BME280;35993;52.604;10.078;2023-03-04T08:28:13;101577.41;;;4.16;100.00
50103;BME280;35993;52.604;10.078;2023-03-04T08:30:39;101582.78;;;4.16;100.00
50103;BME280;35993;52.604;10.078;2023-03-04T08:33:06;101583.72;;;4.25;100.00
50103;BME280;35993;52.604;10.078;2023-03-04T08:35:32;101576.81;;;4.22;100.00
50103;BME280;35993;52.604;10.078;2023-03-04T08:37:58;101577.63;;;4.23;100.00
50103;BME280;35993;52.604;10.078;2023-03-04T08:40:23;101577.56;;;4.33;100.00
50103;BME280;35993;52.604;10.078;2023-03-04T08:42:51;101581.78;;;4.35;100.00
50103;BME280;35993;52.604;10.078;2023-03-04T08:45:17;101582.34;;;4.39;100.00
50103;BME280;35993;52.604;10.078;2023-03-04T08:47:43;101577.13;;;4.37;100.00
50103;BME280;35993;52.604;10.078;2023-03-04T08:50:09;101583.09;;;4.31;100.00
50103;BME280;35993;52.604;10.078;2023-03-04T08:52:35;101579.81;;;4.37;100.00
50103;BME280;35993;52.604;10.078;2023-03-04T08:55:00;101568.41;;;4.43;100.00
50103;BME280;35993;52.604;10.078;2023-03-04T08:57:26;101569.06;;;4.37;100.00
50103;BME280;35993;52.604;10.078;2023-03-04T08:59:52;101580.03;;;4.44;100.00
50103;BME280;35993;52.604;10.078;2023-03-04T09:02:17;101582.22;;;4.49;100.00
50103;BME280;35993;52.604;10.078;2023-03-04T09:04:43;101577.56;;;4.51;100.00
50103;BME280;35993;52.604;10.078;2023-03-04T09:07:08;101576.56;;;4.52;100.00
50103;BME280;35993;52.604;10.078;2023-03-04T09:09:34;101582.56;;;4.46;100.00
50103;BME280;35993;52.604;10.078;2023-03-04T09:12:00;101580.03;;;4.44;100.00
50103;BME280;35993;52.604;10.078;2023-03-04T09:14:25;101582.34;;;4.39;100.00
50103;BME280;35993;52.604;10.078;2023-03-04T09:16:51;101583.63;;;4.35;100.00
50103;BME280;35993;52.604;10.078;2023-03-04T09:19:16;101593.53;;;4.34;100.00
50103;BME280;35993;52.604;10.078;2023-03-04T09:21:42;101589.63;;;4.29;100.00
50103;BME280;35993;52.604;10.078;2023-03-04T09:24:08;101580.56;;;4.30;100.00
50103;BME280;35993;52.604;10.078;2023-03-04T09:26:33;101586.47;;;4.33;100.00
50103;BME280;35993;52.604;10.078;2023-03-04T09:29:00;101585.06;;;4.47;100.00
50103;BME280;35993;52.604;10.078;2023-03-04T09:31:27;101589.91;;;4.62;100.00
50103;BME280;35993;52.604;10.078;2023-03-04T09:33:53;101596.97;;;4.63;100.00
50103;BME280;35993;52.604;10.078;2023-03-04T09:36:19;101593.44;;;4.62;100.00
50103;BME280;35993;52.604;10.078;2023-03-04T09:38:45;101594.59;;;4.59;100.00
50103;BME280;35993;52.604;10.078;2023-03-04T09:41:23;101595.28;;;4.62;100.00
50103;BME280;35993;52.604;10.078;2023-03-04T09:43:51;101591.13;;;4.67;100.00
50103;BME280;35993;52.604;10.078;2023-03-04T09:46:23;101600.59;;;4.53;100.00
50103;BME280;35993;52.604;10.078;2023-03-04T09:48:53;101597.91;;;4.53;100.00
50103;BME280;35993;52.604;10.078;2023-03-04T09:54:04;101592.47;;;4.45;100.00
50103;BME280;35993;52.604;10.078;2023-03-04T09:56:33;101594.50;;;4.51;100.00
50103;BME280;35993;52.604;10.078;2023-03-04T09:59:27;101603.84;;;4.39;100.00
50103;BME280;35993;52.604;10.078;2023-03-04T10:01:56;101604.38;;;4.42;100.00
50103;BME280;35993;52.604;10.078;2023-03-04T10:07:07;101604.50;;;4.41;100.00
50103;BME280;35993;52.604;10.078;2023-03-04T10:09:46;101600.91;;;4.50;100.00
50103;BME280;35993;52.604;10.078;2023-03-04T10:12:19;101593.84;;;4.49;100.00
50103;BME280;35993;52.604;10.078;2023-03-04T10:14:47;101599.56;;;4.72;100.00
50103;BME280;35993;52.604;10.078;2023-03-04T10:17:21;101596.34;;;4.69;100.00
50103;BME280;35993;52.604;10.078;2023-03-04T10:19:58;101593.06;;;4.83;100.00
50103;BME280;35993;52.604;10.078;2023-03-04T10:22:45;101601.09;;;4.75;100.00
50103;BME280;35993;52.604;10.078;2023-03-04T10:27:57;101588.22;;;4.61;100.00
50103;BME280;35993;52.604;10.078;2023-03-04T10:33:20;101590.03;;;4.78;100.00
50103;BME280;35993;52.604;10.078;2023-03-04T10:35:59;101594.88;;;4.74;100.00
50103;BME280;35993;52.604;10.078;2023-03-04T10:38:35;101595.78;;;4.83;100.00
50103;BME280;35993;52.604;10.078;2023-03-04T10:41:14;101598.00;;;4.88;100.00
50103;BME280;35993;52.604;10.078;2023-03-04T10:43:48;101596.22;;;4.97;100.00
50103;BME280;35993;52.604;10.078;2023-03-04T10:46:14;101603.84;;;4.83;100.00
50103;BME280;35993;52.604;10.078;2023-03-04T10:48:42;101602.44;;;4.71;100.00
50103;BME280;35993;52.604;10.078;2023-03-04T10:51:22;101597.97;;;4.62;100.00
50103;BME280;35993;52.604;10.078;2023-03-04T10:53:56;101596.91;;;4.54;100.00
50103;BME280;35993;52.604;10.078;2023-03-04T10:56:40;101592.38;;;4.55;100.00
50103;BME280;35993;52.604;10.078;2023-03-04T10:59:33;101594.38;;;4.53;100.00
50103;BME280;35993;52.604;10.078;2023-03-04T11:02:53;101594.25;;;4.81;100.00
50103;BME280;35993;52.604;10.078;2023-03-04T11:07:30;101583.66;;;5.05;100.00
50103;BME280;35993;52.604;10.078;2023-03-04T11:10:12;101584.06;;;5.19;100.00
50103;BME280;35993;52.604;10.078;2023-03-04T11:12:38;101583.31;;;5.08;100.00
50103;BME280;35993;52.604;10.078;2023-03-04T11:15:17;101578.53;;;4.94;100.00
50103;BME280;35993;52.604;10.078;2023-03-04T11:17:49;101584.53;;;4.88;100.00
50103;BME280;35993;52.604;10.078;2023-03-04T11:20:25;101586.28;;;4.97;100.00
50103;BME280;35993;52.604;10.078;2023-03-04T11:22:54;101579.44;;;5.03;100.00
50103;BME280;35993;52.604;10.078;2023-03-04T11:25:37;101575.63;;;5.14;100.00
50103;BME280;35993;52.604;10.078;2023-03-04T11:28:11;101575.75;;;5.38;100.00
50103;BME280;35993;52.604;10.078;2023-03-04T11:30:44;101562.03;;;5.23;100.00
50103;BME280;35993;52.604;10.078;2023-03-04T11:33:16;101574.31;;;5.61;100.00
50103;BME280;35993;52.604;10.078;2023-03-04T11:38:38;101558.38;;;5.76;100.00
50103;BME280;35993;52.604;10.078;2023-03-04T11:41:12;101557.03;;;5.88;100.00
50103;BME280;35993;52.604;10.078;2023-03-04T11:43:42;101562.78;;;5.93;100.00
50103;BME280;35993;52.604;10.078;2023-03-04T11:49:15;101560.31;;;5.57;100.00
50103;BME280;35993;52.604;10.078;2023-03-04T11:52:18;101569.25;;;5.23;100.00
50103;BME280;35993;52.604;10.078;2023-03-04T12:00:34;101559.25;;;4.54;100.00
50103;BME280;35993;52.604;10.078;2023-03-04T12:06:11;101539.00;;;4.95;100.00
50103;BME280;35993;52.604;10.078;2023-03-04T12:11:32;101537.91;;;5.05;100.00
50103;BME280;35993;52.604;10.078;2023-03-04T12:14:20;101531.00;;;5.46;100.00
50103;BME280;35993;52.604;10.078;2023-03-04T12:19:27;101519.41;;;6.29;97.03
50103;BME280;35993;52.604;10.078;2023-03-04T12:36:04;101516.31;;;5.32;99.01
50103;BME280;35993;52.604;10.078;2023-03-04T12:38:43;101523.38;;;5.33;99.15
50103;BME280;35993;52.604;10.078;2023-03-04T12:49:25;101523.75;;;5.03;100.00
50103;BME280;35993;52.604;10.078;2023-03-04T12:52:02;101519.91;;;5.06;100.00
50103;BME280;35993;52.604;10.078;2023-03-04T12:54:37;101520.03;;;5.31;100.00
50103;BME280;35993;52.604;10.078;2023-03-04T12:57:09;101515.13;;;5.26;99.60
50103;BME280;35993;52.604;10.078;2023-03-04T12:59:42;101503.44;;;5.09;100.00
50103;BME280;35993;52.604;10.078;2023-03-04T13:05:01;101511.09;;;5.30;100.00
50103;BME280;35993;52.604;10.078;2023-03-04T13:10:06;101502.84;;;5.32;100.00
50103;BME280;35993;52.604;10.078;2023-03-04T13:13:01;101508.16;;;5.58;100.00
50103;BME280;35993;52.604;10.078;2023-03-04T13:15:37;101508.75;;;5.35;100.00
50103;BME280;35993;52.604;10.078;2023-03-04T13:20:44;101499.19;;;5.49;100.00
50103;BME280;35993;52.604;10.078;2023-03-04T13:25:40;101507.56;;;5.30;100.00
50103;BME280;35993;52.604;10.078;2023-03-04T13:43:50;101498.63;;;5.88;95.04
50103;BME280;35993;52.604;10.078;2023-03-04T13:51:22;101493.19;;;5.80;92.29
50103;BME280;35993;52.604;10.078;2023-03-04T13:53:52;101498.25;;;5.67;92.37
50103;BME280;35993;52.604;10.078;2023-03-04T13:56:33;101497.97;;;5.35;92.16
50103;BME280;35993;52.604;10.078;2023-03-04T14:01:36;101507.56;;;5.30;95.20
50103;BME280;35993;52.604;10.078;2023-03-04T14:04:18;101498.72;;;5.11;98.16
50103;BME280;35993;52.604;10.078;2023-03-04T14:06:48;101500.06;;;5.15;98.59
50103;BME280;35993;52.604;10.078;2023-03-04T14:09:19;101498.50;;;5.31;99.08
50103;BME280;35993;52.604;10.078;2023-03-04T14:11:46;101497.63;;;5.30;97.97
50103;BME280;35993;52.604;10.078;2023-03-04T14:14:20;101494.63;;;5.41;98.38
50103;BME280;35993;52.604;10.078;2023-03-04T14:16:50;101497.19;;;5.51;98.94
50103;BME280;35993;52.604;10.078;2023-03-04T14:19:28;101489.44;;;5.48;95.97
50103;BME280;35993;52.604;10.078;2023-03-04T14:21:55;101484.44;;;5.62;96.57